CheckWX is a tool to help pilots better visualize weather data.  It is not intended as a substitute for an official pre-flight weather briefing.

06:10:16 UTC

KBPK TAF
Baxter County Airport
Mountain Home, Arkansas, USA
KBPK 200538Z 2006/2106 VRB03KT P6SM SCT250 FM201500 15005KT P6SM SCT045 SCT250 FM210000 VRB03KT P6SM SCT250

Aug-20@
06:00 UTC

Aug-20 @ 06:00 UTC

Aug-20@
15:00 UTC

Aug-20 @ 15:00 UTC

KBPK 200538Z 2006/2106 VRB03KT P6SM SCT250
Wind
  • Variable at 3 KTS
Cloud Levels
  • Scattered at 25,000' AGL

Aug-20@
15:00 UTC

Aug-20 @ 15:00 UTC

Aug-21@
00:00 UTC

Aug-21 @ 00:00 UTC

FM201500 15005KT P6SM SCT045 SCT250

From

From Standard forecast or significant change

Wind
  • 150° at 5 KTS
Cloud Levels
  • Scattered at 4,500' AGL
  • Scattered at 25,000' AGL

Aug-21@
00:00 UTC

Aug-21 @ 00:00 UTC

Aug-21@
06:00 UTC

Aug-21 @ 06:00 UTC

FM210000 VRB03KT P6SM SCT250

From

From Standard forecast or significant change

Wind
  • Variable at 3 KTS
Cloud Levels
  • Scattered at 25,000' AGL